Laudanum — FAC9196 — position and weather

sailwx.info

Track history (hours):
 
Tides and Currents Weather Stations Pressure Air Temp Water Temp Dewpoint Dewpoint Depression Visibility Wind Speed Wind Dir Waves Ship Positions

Laudanum

Last reported at 2018-Jun-03 13:07 UTC. Time now 2018-Jun-19 02:59 UTC.
Position N 47°35' W 003°02'.
Warning: this ship's position is 15 days out of date.

Type: Sailing vessel. MMSI: 227360690.

Date/timePositionNaut miles runAvg speedWind from/ knotsBaromVisibWave heightAir tempDewpointWater temp
2018-Jun-03 13:07N 47°35' W 003°02'0 0.0
2018-Jun-03 12:58N 47°35' W 003°02'0 0.0
2018-Jun-03 12:25N 47°35' W 003°02'0 0.0
2018-Jun-03 11:58N 47°35' W 003°02'0 0.0
2018-Jun-03 11:28N 47°35' W 003°02'0 0.0
2018-Jun-03 10:58N 47°35' W 003°02'0 0.0
2018-Jun-03 10:28N 47°35' W 003°02'0 0.0
2018-Jun-03 09:58N 47°35' W 003°02'0 0.0
2018-Jun-03 09:28N 47°35' W 003°02'0 0.0
2018-Jun-03 08:58N 47°35' W 003°02'0 0.0
2018-Jun-03 08:25N 47°35' W 003°02'0 0.0
2018-Jun-03 07:55N 47°35' W 003°02'0 0.0
2018-Jun-03 07:25N 47°35' W 003°02'0 0.0
2018-Jun-03 06:58N 47°35' W 003°02'0 0.0
2018-Jun-03 06:28N 47°35' W 003°02'0 0.0
2018-Jun-03 05:58N 47°35' W 003°02'0 0.0
2018-Jun-03 05:28N 47°35' W 003°02'0 0.0
2018-Jun-03 04:55N 47°35' W 003°02'0 0.0
2018-Jun-03 04:28N 47°35' W 003°02'0 0.0
2018-Jun-03 03:58N 47°35' W 003°02'0 0.0
2018-Jun-03 03:28N 47°35' W 003°02'0 0.0
2018-Jun-03 02:55N 47°35' W 003°02'0 0.0
2018-Jun-03 02:28N 47°35' W 003°02'0 0.0
2018-Jun-03 01:58N 47°35' W 003°02'0 0.0
2018-Jun-03 01:28N 47°35' W 003°02'0 0.0
2018-Jun-03 00:58N 47°35' W 003°02'0 0.0
2018-Jun-03 00:28N 47°35' W 003°02'0 0.0
2018-Jun-02 23:58N 47°35' W 003°02'0 0.0
2018-Jun-02 23:28N 47°35' W 003°02'0 0.0
2018-Jun-02 22:58N 47°35' W 003°02'0 0.0
2018-Jun-02 22:25N 47°35' W 003°02'0 0.0
2018-Jun-02 21:58N 47°35' W 003°02'1 2.5
2018-Jun-02 21:30N 47°34' W 003°01'3 6.1
2018-Jun-02 21:00N 47°31' W 003°01'3 5.6
2018-Jun-02 20:30N 47°29' W 003°02'3 5.1
2018-Jun-02 20:00N 47°26' W 003°03'3 5.1
2018-Jun-02 19:30N 47°25' W 003°06'2 4.5
2018-Jun-02 19:00N 47°24' W 003°10'2 4.4
2018-Jun-02 18:31N 47°24' W 003°13'1 2.5
2018-Jun-02 18:00N 47°24' W 003°15'2 3.5
2018-Jun-02 17:30N 47°23' W 003°12'2 4.2
2018-Jun-02 17:00N 47°23' W 003°10'2 3.6
2018-Jun-02 16:30N 47°25' W 003°08'1 2.9
2018-Jun-02 16:00N 47°25' W 003°06'1 2.9
2018-Jun-02 15:30N 47°26' W 003°04'0 0.8
2018-Jun-02 15:00N 47°26' W 003°03'0 0.6
2018-Jun-02 14:30N 47°26' W 003°03'0 0.8
2018-Jun-02 14:00N 47°26' W 003°02'0 0.9
2018-Jun-02 13:30N 47°27' W 003°02'0 0.6
2018-Jun-02 12:58N 47°27' W 003°02'0 0.7
2018-Jun-02 12:28N 47°27' W 003°02'1 1.7
2018-Jun-02 12:00N 47°28' W 003°02'1 1.1
2018-Jun-02 11:25N 47°29' W 003°02'0 0.5
2018-Jun-02 10:58N 47°29' W 003°01'0 0.7
2018-Jun-02 10:28N 47°29' W 003°01'1 1.9
2018-Jun-02 09:58N 47°30' W 003°01'1 1.1
2018-Jun-02 09:30N 47°30' W 003°01'1 1.3
2018-Jun-02 09:00N 47°31' W 003°00'1 1.4
2018-Jun-02 08:30N 47°31' W 002°60'0 0.7
2018-Jun-02 08:00N 47°32' W 002°60'2 3.7
2018-Jun-02 07:30N 47°34' W 003°00'2 3.8
2018-Jun-02 06:59N 47°35' W 003°02'0 0.1
2018-Jun-02 06:25N 47°35' W 003°02'0 0.0
2018-Jun-02 05:58N 47°35' W 003°02'0 0.0
2018-Jun-02 05:28N 47°35' W 003°02'0 0.0
2018-Jun-02 04:58N 47°35' W 003°02'0 0.0
2018-Jun-02 04:28N 47°35' W 003°02'0 0.0
2018-Jun-02 03:58N 47°35' W 003°02'0 0.0
2018-Jun-02 03:28N 47°35' W 003°02'0 0.0
2018-Jun-02 02:58N 47°35' W 003°02'0 0.0
2018-Jun-02 02:28N 47°35' W 003°02'0 0.0
2018-Jun-02 01:58N 47°35' W 003°02'0 0.0
2018-Jun-02 01:28N 47°35' W 003°02'0 0.0
2018-Jun-02 00:58N 47°35' W 003°02'0 0.0
2018-Jun-02 00:28N 47°35' W 003°02'0 0.0
2018-Jun-01 23:58N 47°35' W 003°02'0 0.0
2018-Jun-01 23:28N 47°35' W 003°02'0 0.0
2018-Jun-01 22:58N 47°35' W 003°02'0 0.0
2018-Jun-01 22:28N 47°35' W 003°02'0 0.0
2018-Jun-01 21:58N 47°35' W 003°02'0 0.0
2018-Jun-01 21:28N 47°35' W 003°02'0 0.0
2018-Jun-01 20:58N 47°35' W 003°02'0 0.0
2018-Jun-01 20:28N 47°35' W 003°02'0 0.0
2018-Jun-01 19:58N 47°35' W 003°02'0 0.0
2018-Jun-01 19:28N 47°35' W 003°02'0 0.0
2018-Jun-01 18:58N 47°35' W 003°02'0 0.0
2018-Jun-01 18:28N 47°35' W 003°02'0 0.0
2018-Jun-01 17:46N 47°35' W 003°02'0 0.0
2018-Jun-01 17:28N 47°35' W 003°02'0 0.0
2018-Jun-01 16:58N 47°35' W 003°02'0 0.0
2018-Jun-01 16:28N 47°35' W 003°02'0 0.0
2018-Jun-01 15:58N 47°35' W 003°02'0 0.0
2018-Jun-01 15:22N 47°35' W 003°02'0 0.0
2018-Jun-01 14:58N 47°35' W 003°02'0 0.0
2018-Jun-01 14:22N 47°35' W 003°02'0 0.0
2018-Jun-01 13:55N 47°35' W 003°02'0 0.0
2018-Jun-01 13:28N 47°35' W 003°02'0 0.0
2018-Jun-01 12:46N 47°35' W 003°02'0 0.0
2018-Jun-01 12:28N 47°35' W 003°02'0 0.0
2018-Jun-01 11:58N 47°35' W 003°02'0 0.0
2018-Jun-01 11:28N 47°35' W 003°02'0 0.0
2018-Jun-01 10:58N 47°35' W 003°02'0 0.0
2018-Jun-01 10:25N 47°35' W 003°02'0 0.0
2018-Jun-01 09:58N 47°35' W 003°02'0 0.0
2018-Jun-01 09:28N 47°35' W 003°02'0 0.0
2018-Jun-01 08:58N 47°35' W 003°02'0 0.0
2018-Jun-01 08:28N 47°35' W 003°02'0 0.0
2018-Jun-01 07:58N 47°35' W 003°02'0 0.0
2018-Jun-01 07:28N 47°35' W 003°02'0 0.0
2018-Jun-01 06:55N 47°35' W 003°02'0 0.0
2018-Jun-01 06:28N 47°35' W 003°02'0 0.0
2018-Jun-01 05:58N 47°35' W 003°02'0 0.0
2018-Jun-01 05:28N 47°35' W 003°02'0 0.0
2018-Jun-01 04:58N 47°35' W 003°02'0 0.0
2018-Jun-01 04:25N 47°35' W 003°02'0 0.0
2018-Jun-01 03:52N 47°35' W 003°02'0 0.0
2018-Jun-01 03:25N 47°35' W 003°02'0 0.0
2018-Jun-01 02:58N 47°35' W 003°02'0 0.0
2018-Jun-01 02:28N 47°35' W 003°02'0 0.0
2018-Jun-01 01:58N 47°35' W 003°02'0 0.0
2018-Jun-01 01:28N 47°35' W 003°02'0 0.0
2018-Jun-01 00:58N 47°35' W 003°02'0 0.0
2018-Jun-01 00:28N 47°35' W 003°02'0 0.0
2018-May-31 23:58N 47°35' W 003°02'0 0.0
2018-May-31 23:28N 47°35' W 003°02'0 0.0
2018-May-31 22:58N 47°35' W 003°02'0 0.0
2018-May-31 22:25N 47°35' W 003°02'0 0.0
2018-May-31 21:58N 47°35' W 003°02'0 0.0
2018-May-31 21:28N 47°35' W 003°02'0 0.0
2018-May-31 20:58N 47°35' W 003°02'0 0.0
2018-May-31 20:28N 47°35' W 003°02'0 0.0
2018-May-31 19:58N 47°35' W 003°02'0 0.0
2018-May-31 19:28N 47°35' W 003°02'0 0.0
2018-May-31 18:58N 47°35' W 003°02'0 0.0
2018-May-31 18:28N 47°35' W 003°02'0 0.0
2018-May-31 17:58N 47°35' W 003°02'0 0.0
2018-May-31 17:28N 47°35' W 003°02'0 0.0
2018-May-31 16:58N 47°35' W 003°02'  
Track history (hours):
 
Tides and Currents Weather Stations Pressure Air Temp Water Temp Dewpoint Dewpoint Depression Visibility Wind Speed Wind Dir Waves Ship Positions

Laudanum

Last reported at 2018-Jun-03 13:07 UTC. Time now 2018-Jun-19 02:59 UTC.
Position N 47°35' W 003°02'.
Warning: this ship's position is 15 days out of date.

Type: Sailing vessel. MMSI: 227360690.

Date/timePositionNaut miles runAvg speedWind from/ knotsBaromVisibWave heightAir tempDewpointWater temp
2018-Jun-03 13:07N 47°35' W 003°02'0 0.0
2018-Jun-03 12:58N 47°35' W 003°02'0 0.0
2018-Jun-03 12:25N 47°35' W 003°02'0 0.0
2018-Jun-03 11:58N 47°35' W 003°02'0 0.0
2018-Jun-03 11:28N 47°35' W 003°02'0 0.0
2018-Jun-03 10:58N 47°35' W 003°02'0 0.0
2018-Jun-03 10:28N 47°35' W 003°02'0 0.0
2018-Jun-03 09:58N 47°35' W 003°02'0 0.0
2018-Jun-03 09:28N 47°35' W 003°02'0 0.0
2018-Jun-03 08:58N 47°35' W 003°02'0 0.0
2018-Jun-03 08:25N 47°35' W 003°02'0 0.0
2018-Jun-03 07:55N 47°35' W 003°02'0 0.0
2018-Jun-03 07:25N 47°35' W 003°02'0 0.0
2018-Jun-03 06:58N 47°35' W 003°02'0 0.0
2018-Jun-03 06:28N 47°35' W 003°02'0 0.0
2018-Jun-03 05:58N 47°35' W 003°02'0 0.0
2018-Jun-03 05:28N 47°35' W 003°02'0 0.0
2018-Jun-03 04:55N 47°35' W 003°02'0 0.0
2018-Jun-03 04:28N 47°35' W 003°02'0 0.0
2018-Jun-03 03:58N 47°35' W 003°02'0 0.0
2018-Jun-03 03:28N 47°35' W 003°02'0 0.0
2018-Jun-03 02:55N 47°35' W 003°02'0 0.0
2018-Jun-03 02:28N 47°35' W 003°02'0 0.0
2018-Jun-03 01:58N 47°35' W 003°02'0 0.0
2018-Jun-03 01:28N 47°35' W 003°02'0 0.0
2018-Jun-03 00:58N 47°35' W 003°02'0 0.0
2018-Jun-03 00:28N 47°35' W 003°02'0 0.0
2018-Jun-02 23:58N 47°35' W 003°02'0 0.0
2018-Jun-02 23:28N 47°35' W 003°02'0 0.0
2018-Jun-02 22:58N 47°35' W 003°02'0 0.0
2018-Jun-02 22:25N 47°35' W 003°02'0 0.0
2018-Jun-02 21:58N 47°35' W 003°02'1 2.5
2018-Jun-02 21:30N 47°34' W 003°01'3 6.1
2018-Jun-02 21:00N 47°31' W 003°01'3 5.6
2018-Jun-02 20:30N 47°29' W 003°02'3 5.1
2018-Jun-02 20:00N 47°26' W 003°03'3 5.1
2018-Jun-02 19:30N 47°25' W 003°06'2 4.5
2018-Jun-02 19:00N 47°24' W 003°10'2 4.4
2018-Jun-02 18:31N 47°24' W 003°13'1 2.5
2018-Jun-02 18:00N 47°24' W 003°15'2 3.5
2018-Jun-02 17:30N 47°23' W 003°12'2 4.2
2018-Jun-02 17:00N 47°23' W 003°10'2 3.6
2018-Jun-02 16:30N 47°25' W 003°08'1 2.9
2018-Jun-02 16:00N 47°25' W 003°06'1 2.9
2018-Jun-02 15:30N 47°26' W 003°04'0 0.8
2018-Jun-02 15:00N 47°26' W 003°03'0 0.6
2018-Jun-02 14:30N 47°26' W 003°03'0 0.8
2018-Jun-02 14:00N 47°26' W 003°02'0 0.9
2018-Jun-02 13:30N 47°27' W 003°02'0 0.6
2018-Jun-02 12:58N 47°27' W 003°02'0 0.7
2018-Jun-02 12:28N 47°27' W 003°02'1 1.7
2018-Jun-02 12:00N 47°28' W 003°02'1 1.1
2018-Jun-02 11:25N 47°29' W 003°02'0 0.5
2018-Jun-02 10:58N 47°29' W 003°01'0 0.7
2018-Jun-02 10:28N 47°29' W 003°01'1 1.9
2018-Jun-02 09:58N 47°30' W 003°01'1 1.1
2018-Jun-02 09:30N 47°30' W 003°01'1 1.3
2018-Jun-02 09:00N 47°31' W 003°00'1 1.4
2018-Jun-02 08:30N 47°31' W 002°60'0 0.7
2018-Jun-02 08:00N 47°32' W 002°60'2 3.7
2018-Jun-02 07:30N 47°34' W 003°00'2 3.8
2018-Jun-02 06:59N 47°35' W 003°02'0 0.1
2018-Jun-02 06:25N 47°35' W 003°02'0 0.0
2018-Jun-02 05:58N 47°35' W 003°02'0 0.0
2018-Jun-02 05:28N 47°35' W 003°02'0 0.0
2018-Jun-02 04:58N 47°35' W 003°02'0 0.0
2018-Jun-02 04:28N 47°35' W 003°02'0 0.0
2018-Jun-02 03:58N 47°35' W 003°02'0 0.0
2018-Jun-02 03:28N 47°35' W 003°02'0 0.0
2018-Jun-02 02:58N 47°35' W 003°02'0 0.0
2018-Jun-02 02:28N 47°35' W 003°02'0 0.0
2018-Jun-02 01:58N 47°35' W 003°02'0 0.0
2018-Jun-02 01:28N 47°35' W 003°02'0 0.0
2018-Jun-02 00:58N 47°35' W 003°02'0 0.0
2018-Jun-02 00:28N 47°35' W 003°02'0 0.0
2018-Jun-01 23:58N 47°35' W 003°02'0 0.0
2018-Jun-01 23:28N 47°35' W 003°02'0 0.0
2018-Jun-01 22:58N 47°35' W 003°02'0 0.0
2018-Jun-01 22:28N 47°35' W 003°02'0 0.0
2018-Jun-01 21:58N 47°35' W 003°02'0 0.0
2018-Jun-01 21:28N 47°35' W 003°02'0 0.0
2018-Jun-01 20:58N 47°35' W 003°02'0 0.0
2018-Jun-01 20:28N 47°35' W 003°02'0 0.0
2018-Jun-01 19:58N 47°35' W 003°02'0 0.0
2018-Jun-01 19:28N 47°35' W 003°02'0 0.0
2018-Jun-01 18:58N 47°35' W 003°02'0 0.0
2018-Jun-01 18:28N 47°35' W 003°02'0 0.0
2018-Jun-01 17:46N 47°35' W 003°02'0 0.0
2018-Jun-01 17:28N 47°35' W 003°02'0 0.0
2018-Jun-01 16:58N 47°35' W 003°02'0 0.0
2018-Jun-01 16:28N 47°35' W 003°02'0 0.0
2018-Jun-01 15:58N 47°35' W 003°02'0 0.0
2018-Jun-01 15:22N 47°35' W 003°02'0 0.0
2018-Jun-01 14:58N 47°35' W 003°02'0 0.0
2018-Jun-01 14:22N 47°35' W 003°02'0 0.0
2018-Jun-01 13:55N 47°35' W 003°02'0 0.0
2018-Jun-01 13:28N 47°35' W 003°02'0 0.0
2018-Jun-01 12:46N 47°35' W 003°02'0 0.0
2018-Jun-01 12:28N 47°35' W 003°02'0 0.0
2018-Jun-01 11:58N 47°35' W 003°02'0 0.0
2018-Jun-01 11:28N 47°35' W 003°02'0 0.0
2018-Jun-01 10:58N 47°35' W 003°02'0 0.0
2018-Jun-01 10:25N 47°35' W 003°02'0 0.0
2018-Jun-01 09:58N 47°35' W 003°02'0 0.0
2018-Jun-01 09:28N 47°35' W 003°02'0 0.0
2018-Jun-01 08:58N 47°35' W 003°02'0 0.0
2018-Jun-01 08:28N 47°35' W 003°02'0 0.0
2018-Jun-01 07:58N 47°35' W 003°02'0 0.0
2018-Jun-01 07:28N 47°35' W 003°02'0 0.0
2018-Jun-01 06:55N 47°35' W 003°02'0 0.0
2018-Jun-01 06:28N 47°35' W 003°02'0 0.0
2018-Jun-01 05:58N 47°35' W 003°02'0 0.0
2018-Jun-01 05:28N 47°35' W 003°02'0 0.0
2018-Jun-01 04:58N 47°35' W 003°02'0 0.0
2018-Jun-01 04:25N 47°35' W 003°02'0 0.0
2018-Jun-01 03:52N 47°35' W 003°02'0 0.0
2018-Jun-01 03:25N 47°35' W 003°02'0 0.0
2018-Jun-01 02:58N 47°35' W 003°02'0 0.0
2018-Jun-01 02:28N 47°35' W 003°02'0 0.0
2018-Jun-01 01:58N 47°35' W 003°02'0 0.0
2018-Jun-01 01:28N 47°35' W 003°02'0 0.0
2018-Jun-01 00:58N 47°35' W 003°02'0 0.0
2018-Jun-01 00:28N 47°35' W 003°02'0 0.0
2018-May-31 23:58N 47°35' W 003°02'0 0.0
2018-May-31 23:28N 47°35' W 003°02'0 0.0
2018-May-31 22:58N 47°35' W 003°02'0 0.0
2018-May-31 22:25N 47°35' W 003°02'0 0.0
2018-May-31 21:58N 47°35' W 003°02'0 0.0
2018-May-31 21:28N 47°35' W 003°02'0 0.0
2018-May-31 20:58N 47°35' W 003°02'0 0.0
2018-May-31 20:28N 47°35' W 003°02'0 0.0
2018-May-31 19:58N 47°35' W 003°02'0 0.0
2018-May-31 19:28N 47°35' W 003°02'0 0.0
2018-May-31 18:58N 47°35' W 003°02'0 0.0
2018-May-31 18:28N 47°35' W 003°02'0 0.0
2018-May-31 17:58N 47°35' W 003°02'0 0.0
2018-May-31 17:28N 47°35' W 003°02'0 0.0
2018-May-31 16:58N 47°35' W 003°02'  

Dump ship's entire track history